Terminal Aerodrome Forecast
Issued by NWS

Home | Current Version | Previous Version | Text Only | Print | Product List | Glossary On
Versions: 1 2 3 4 5 6 7 8 9 10 11 12 13 14 15 16
000
FTUS45 KABQ 252300
TAFSAF
TAF
KSAF 252339Z 2600/2624 25010G18KT P6SM VCSH BKN090
     FM260200 28005KT P6SM SCT070
     FM260900 36008KT P6SM BKN050
     FM261400 17010KT 6SM -RA OVC035
     FM261800 29011KT 5SM -RA OVC030=

USA.gov is the U.S. government's official web portal to all federal, state and local government web resources and services.